URO69B EDDV-EGHH
Flight info
| Callsign | URO69B |
|---|---|
| Flight time | 1h 17m |
| Altitude | 40000 |
| Route | VAXEV1G VAXEV Z718 OSN L980 RKN DCT GALSO Q63 IPKUS DCT UMBUR |
| Aircraft | A346/H-SDE2E3FGHIJ3J4J5M1RWXY/LB1D1 |
Departure
| Time | 2026-05-08 20:11 |
|---|---|
| Airport | Hannover Airport (EDDV) |
Arrival
| Time | 2026-05-08 21:28 |
|---|---|
| Airport | Bournemouth Airport (EGHH) |
| Time | Latitude | Longitude | Altitude | Speed | Heading |
|---|---|---|---|---|---|
| 2026-05-08 19:40 | 52.45928 | 9.68738 | 199 ft | 0 kts | 232° |
| 2026-05-08 20:01 | 52.45932 | 9.68746 | 213 ft | 4 kts | 232° |
| 2026-05-08 20:02 | 52.45949 | 9.68781 | 209 ft | 4 kts | 232° |
| 2026-05-08 20:02 | 52.45962 | 9.68809 | 213 ft | 4 kts | 230° |
| 2026-05-08 20:02 | 52.45979 | 9.68833 | 213 ft | 4 kts | 204° |
| 2026-05-08 20:02 | 52.45989 | 9.68838 | 213 ft | 4 kts | 157° |
| 2026-05-08 20:03 | 52.46005 | 9.68819 | 213 ft | 4 kts | 142° |
| 2026-05-08 20:03 | 52.46022 | 9.68798 | 213 ft | 0 kts | 142° |
| 2026-05-08 20:07 | 52.45987 | 9.68843 | 213 ft | 14 kts | 142° |
| 2026-05-08 20:07 | 52.45873 | 9.68986 | 204 ft | 24 kts | 142° |
| 2026-05-08 20:07 | 52.45736 | 9.69142 | 201 ft | 18 kts | 169° |
| 2026-05-08 20:07 | 52.45633 | 9.69115 | 196 ft | 13 kts | 249° |
| 2026-05-08 20:08 | 52.45626 | 9.68942 | 201 ft | 18 kts | 271° |
| 2026-05-08 20:08 | 52.45631 | 9.68717 | 196 ft | 22 kts | 273° |
| 2026-05-08 20:08 | 52.45640 | 9.68446 | 205 ft | 25 kts | 273° |
| 2026-05-08 20:08 | 52.45651 | 9.68137 | 199 ft | 29 kts | 273° |
| 2026-05-08 20:09 | 52.45658 | 9.67848 | 209 ft | 21 kts | 268° |
| 2026-05-08 20:09 | 52.45559 | 9.67696 | 194 ft | 18 kts | 179° |
| 2026-05-08 20:09 | 52.45503 | 9.67728 | 197 ft | 0 kts | 95° |
| 2026-05-08 20:09 | 52.45502 | 9.67741 | 191 ft | 3 kts | 94° |
| 2026-05-08 20:10 | 52.45501 | 9.67771 | 195 ft | 4 kts | 94° |
| 2026-05-08 20:10 | 52.45483 | 9.68239 | 189 ft | 84 kts | 91° |
| 2026-05-08 20:10 | 52.45444 | 9.69622 | 210 ft | 155 kts | 94° |
| 2026-05-08 20:10 | 52.45368 | 9.71540 | 776 ft | 170 kts | 95° |
| 2026-05-08 20:11 | 52.45310 | 9.73429 | 1817 ft | 162 kts | 94° |
| 2026-05-08 20:11 | 52.45358 | 9.75303 | 2584 ft | 172 kts | 74° |
| 2026-05-08 20:11 | 52.46077 | 9.76965 | 3119 ft | 193 kts | 38° |
| 2026-05-08 20:11 | 52.47432 | 9.77598 | 3634 ft | 219 kts | 358° |
| 2026-05-08 20:12 | 52.48968 | 9.77214 | 4572 ft | 224 kts | 349° |
| 2026-05-08 20:12 | 52.50385 | 9.76165 | 5614 ft | 227 kts | 318° |
| 2026-05-08 20:12 | 52.51329 | 9.74030 | 6480 ft | 240 kts | 297° |
| 2026-05-08 20:12 | 52.52098 | 9.71473 | 7206 ft | 257 kts | 295° |
| 2026-05-08 20:13 | 52.52898 | 9.68721 | 7920 ft | 276 kts | 295° |
| 2026-05-08 20:13 | 52.53758 | 9.65832 | 8882 ft | 284 kts | 296° |
| 2026-05-08 20:13 | 52.54646 | 9.62917 | 10084 ft | 286 kts | 296° |
| 2026-05-08 20:13 | 52.55558 | 9.59961 | 11119 ft | 294 kts | 296° |
| 2026-05-08 20:14 | 52.56511 | 9.56880 | 11875 ft | 312 kts | 296° |
| 2026-05-08 20:14 | 52.57526 | 9.53599 | 12577 ft | 331 kts | 296° |
| 2026-05-08 20:14 | 52.58601 | 9.50121 | 13305 ft | 350 kts | 296° |
| 2026-05-08 20:14 | 52.59720 | 9.46492 | 14235 ft | 359 kts | 296° |
| 2026-05-08 20:15 | 52.60520 | 9.42580 | 15249 ft | 364 kts | 278° |
| 2026-05-08 20:15 | 52.60456 | 9.38423 | 16361 ft | 367 kts | 259° |
| 2026-05-08 20:15 | 52.59536 | 9.34488 | 17441 ft | 373 kts | 240° |
| 2026-05-08 20:15 | 52.57834 | 9.31241 | 18477 ft | 380 kts | 221° |
| 2026-05-08 20:16 | 52.55710 | 9.28587 | 19390 ft | 385 kts | 218° |
| 2026-05-08 20:16 | 52.53540 | 9.25942 | 20273 ft | 391 kts | 218° |
| 2026-05-08 20:16 | 52.51339 | 9.23253 | 21152 ft | 396 kts | 218° |
| 2026-05-08 20:16 | 52.49117 | 9.20527 | 22053 ft | 401 kts | 218° |
| 2026-05-08 20:17 | 52.46869 | 9.17762 | 22933 ft | 406 kts | 218° |
| 2026-05-08 20:17 | 52.44593 | 9.14961 | 23792 ft | 411 kts | 218° |
| 2026-05-08 20:17 | 52.42301 | 9.12087 | 24525 ft | 416 kts | 221° |
| 2026-05-08 20:17 | 52.40282 | 9.08688 | 25254 ft | 418 kts | 233° |
| 2026-05-08 20:18 | 52.38683 | 9.04707 | 26019 ft | 419 kts | 243° |
| 2026-05-08 20:18 | 52.37499 | 9.00324 | 26766 ft | 422 kts | 249° |
| 2026-05-08 20:18 | 52.36421 | 8.95837 | 27491 ft | 427 kts | 250° |
| 2026-05-08 20:18 | 52.35342 | 8.91287 | 28175 ft | 432 kts | 250° |
| 2026-05-08 20:19 | 52.34242 | 8.86663 | 28859 ft | 437 kts | 250° |
| 2026-05-08 20:19 | 52.33126 | 8.82005 | 29553 ft | 442 kts | 250° |
| 2026-05-08 20:19 | 52.31992 | 8.77304 | 30232 ft | 446 kts | 250° |
| 2026-05-08 20:19 | 52.30841 | 8.72553 | 30818 ft | 451 kts | 250° |
| 2026-05-08 20:20 | 52.29684 | 8.67793 | 31541 ft | 450 kts | 250° |
| 2026-05-08 20:20 | 52.28542 | 8.63116 | 32425 ft | 447 kts | 249° |
| 2026-05-08 20:20 | 52.27391 | 8.58414 | 33333 ft | 443 kts | 249° |
| 2026-05-08 20:20 | 52.26248 | 8.53756 | 34188 ft | 441 kts | 249° |
| 2026-05-08 20:21 | 52.25092 | 8.49061 | 34872 ft | 440 kts | 249° |
| 2026-05-08 20:21 | 52.23947 | 8.44415 | 35482 ft | 440 kts | 249° |
| 2026-05-08 20:21 | 52.22833 | 8.39764 | 36046 ft | 440 kts | 251° |
| 2026-05-08 20:21 | 52.21985 | 8.34969 | 36564 ft | 439 kts | 260° |
| 2026-05-08 20:22 | 52.21533 | 8.30035 | 37081 ft | 439 kts | 264° |
| 2026-05-08 20:22 | 52.21179 | 8.25075 | 37620 ft | 440 kts | 264° |
| 2026-05-08 20:22 | 52.20842 | 8.20185 | 38133 ft | 440 kts | 264° |
| 2026-05-08 20:22 | 52.20608 | 8.16827 | 38490 ft | 440 kts | 264° |
| 2026-05-08 20:23 | 52.20142 | 8.10243 | 39021 ft | 442 kts | 264° |
| 2026-05-08 20:23 | 52.19782 | 8.05242 | 39305 ft | 445 kts | 264° |
| 2026-05-08 20:23 | 52.19414 | 8.00209 | 39599 ft | 447 kts | 264° |
| 2026-05-08 20:23 | 52.19044 | 7.95190 | 39892 ft | 449 kts | 264° |
| 2026-05-08 20:24 | 52.18666 | 7.90123 | 40117 ft | 451 kts | 264° |
| 2026-05-08 20:24 | 52.18284 | 7.85040 | 40131 ft | 452 kts | 264° |
| 2026-05-08 20:24 | 52.17510 | 7.74848 | 40139 ft | 452 kts | 264° |
| 2026-05-08 20:25 | 52.16727 | 7.64666 | 40141 ft | 452 kts | 264° |
| 2026-05-08 20:25 | 52.15935 | 7.54482 | 40142 ft | 452 kts | 264° |
| 2026-05-08 20:26 | 52.15135 | 7.44299 | 40145 ft | 452 kts | 263° |
| 2026-05-08 20:26 | 52.14326 | 7.34135 | 40140 ft | 452 kts | 263° |
| 2026-05-08 20:27 | 52.13507 | 7.23960 | 40139 ft | 452 kts | 263° |
| 2026-05-08 20:27 | 52.12678 | 7.13759 | 40142 ft | 452 kts | 263° |
| 2026-05-08 20:28 | 52.11843 | 7.03600 | 40134 ft | 453 kts | 263° |
| 2026-05-08 20:28 | 52.11140 | 6.95138 | 40134 ft | 453 kts | 263° |
| 2026-05-08 20:29 | 52.10287 | 6.84973 | 40136 ft | 452 kts | 263° |
| 2026-05-08 20:29 | 52.09429 | 6.74846 | 40134 ft | 451 kts | 263° |
| 2026-05-08 20:30 | 52.08562 | 6.64706 | 40127 ft | 452 kts | 263° |
| 2026-05-08 20:30 | 52.07686 | 6.54570 | 40128 ft | 452 kts | 263° |
| 2026-05-08 20:31 | 52.06800 | 6.44437 | 40124 ft | 452 kts | 263° |
| 2026-05-08 20:31 | 52.05904 | 6.34300 | 40125 ft | 452 kts | 263° |
| 2026-05-08 20:32 | 52.05004 | 6.24202 | 40132 ft | 451 kts | 263° |
| 2026-05-08 20:32 | 52.04095 | 6.14106 | 40134 ft | 451 kts | 263° |
| 2026-05-08 20:33 | 52.03177 | 6.04016 | 40142 ft | 451 kts | 263° |
| 2026-05-08 20:33 | 52.02253 | 5.93953 | 40120 ft | 451 kts | 263° |
| 2026-05-08 20:34 | 52.01318 | 5.83871 | 40120 ft | 450 kts | 263° |
| 2026-05-08 20:35 | 51.99901 | 5.68772 | 40112 ft | 450 kts | 262° |
| 2026-05-08 20:35 | 51.98948 | 5.58743 | 40107 ft | 450 kts | 262° |
| 2026-05-08 20:36 | 51.97985 | 5.48694 | 40108 ft | 450 kts | 262° |
| 2026-05-08 20:36 | 51.97014 | 5.38660 | 40113 ft | 450 kts | 262° |
| 2026-05-08 20:37 | 51.96036 | 5.28644 | 40114 ft | 449 kts | 262° |
| 2026-05-08 20:37 | 51.95051 | 5.18645 | 40109 ft | 448 kts | 262° |
| 2026-05-08 20:38 | 51.94057 | 5.08654 | 40109 ft | 448 kts | 262° |
| 2026-05-08 20:38 | 51.93053 | 4.98647 | 40107 ft | 449 kts | 262° |
| 2026-05-08 20:39 | 51.92040 | 4.88643 | 40108 ft | 449 kts | 262° |
| 2026-05-08 20:39 | 51.91021 | 4.78658 | 40105 ft | 448 kts | 262° |
| 2026-05-08 20:40 | 51.90000 | 4.68743 | 40109 ft | 448 kts | 262° |
| 2026-05-08 20:40 | 51.88957 | 4.58714 | 40122 ft | 448 kts | 262° |
| 2026-05-08 20:41 | 51.87912 | 4.48734 | 40118 ft | 448 kts | 261° |
| 2026-05-08 20:41 | 51.86859 | 4.38773 | 40113 ft | 448 kts | 261° |
| 2026-05-08 20:42 | 51.85805 | 4.28891 | 40107 ft | 448 kts | 261° |
| 2026-05-08 20:42 | 51.84735 | 4.18929 | 40115 ft | 448 kts | 261° |
| 2026-05-08 20:43 | 51.83656 | 4.08979 | 40111 ft | 448 kts | 261° |
| 2026-05-08 20:43 | 51.82570 | 3.99043 | 40111 ft | 448 kts | 261° |
| 2026-05-08 20:44 | 51.81476 | 3.89109 | 40115 ft | 448 kts | 261° |
| 2026-05-08 20:44 | 51.80374 | 3.79184 | 40112 ft | 448 kts | 261° |
| 2026-05-08 20:45 | 51.79263 | 3.69263 | 40114 ft | 448 kts | 261° |
| 2026-05-08 20:45 | 51.78143 | 3.59351 | 40118 ft | 448 kts | 261° |
| 2026-05-08 20:46 | 51.77015 | 3.49438 | 40113 ft | 448 kts | 261° |
| 2026-05-08 20:46 | 51.75877 | 3.39530 | 40098 ft | 448 kts | 261° |
| 2026-05-08 20:47 | 51.74732 | 3.29642 | 40110 ft | 447 kts | 260° |
| 2026-05-08 20:47 | 51.73590 | 3.19770 | 40112 ft | 447 kts | 261° |
| 2026-05-08 20:48 | 51.72838 | 3.09820 | 40113 ft | 446 kts | 265° |
| 2026-05-08 20:48 | 51.72230 | 2.99844 | 40114 ft | 446 kts | 265° |
| 2026-05-08 20:49 | 51.71614 | 2.89874 | 40110 ft | 446 kts | 265° |
| 2026-05-08 20:49 | 51.70986 | 2.79887 | 40114 ft | 447 kts | 265° |
| 2026-05-08 20:50 | 51.70347 | 2.69905 | 40116 ft | 447 kts | 265° |
| 2026-05-08 20:50 | 51.69700 | 2.59927 | 40116 ft | 447 kts | 265° |
| 2026-05-08 20:51 | 51.69044 | 2.49938 | 40114 ft | 447 kts | 265° |
| 2026-05-08 20:51 | 51.68381 | 2.39966 | 40114 ft | 447 kts | 264° |
| 2026-05-08 20:52 | 51.67708 | 2.29978 | 40114 ft | 447 kts | 264° |
| 2026-05-08 20:52 | 51.67026 | 2.19994 | 40113 ft | 447 kts | 264° |
| 2026-05-08 20:53 | 51.66336 | 2.10020 | 40121 ft | 447 kts | 264° |
| 2026-05-08 20:53 | 51.65637 | 2.00044 | 40121 ft | 447 kts | 264° |
| 2026-05-08 20:54 | 51.64929 | 1.90056 | 40126 ft | 447 kts | 264° |
| 2026-05-08 20:54 | 51.64217 | 1.80136 | 40122 ft | 445 kts | 264° |
| 2026-05-08 20:55 | 51.63498 | 1.70239 | 40126 ft | 445 kts | 264° |
| 2026-05-08 20:55 | 51.62770 | 1.60335 | 40127 ft | 444 kts | 264° |
| 2026-05-08 20:56 | 51.62034 | 1.50448 | 40123 ft | 444 kts | 264° |
| 2026-05-08 20:56 | 51.61294 | 1.40600 | 39943 ft | 437 kts | 263° |
| 2026-05-08 20:56 | 51.60926 | 1.35748 | 39427 ft | 437 kts | 264° |
| 2026-05-08 20:57 | 51.60553 | 1.30886 | 38827 ft | 438 kts | 264° |
| 2026-05-08 20:57 | 51.60178 | 1.26021 | 37719 ft | 436 kts | 264° |
| 2026-05-08 20:57 | 51.59802 | 1.21170 | 36533 ft | 436 kts | 264° |
| 2026-05-08 20:57 | 51.59368 | 1.16320 | 35723 ft | 440 kts | 259° |
| 2026-05-08 20:58 | 51.58621 | 1.11579 | 35047 ft | 432 kts | 257° |
| 2026-05-08 20:58 | 51.57814 | 1.06940 | 34257 ft | 430 kts | 257° |
| 2026-05-08 20:58 | 51.56996 | 1.02298 | 33503 ft | 431 kts | 256° |
| 2026-05-08 20:58 | 51.56178 | 0.97620 | 32592 ft | 436 kts | 256° |
| 2026-05-08 20:59 | 51.55357 | 0.92900 | 31750 ft | 439 kts | 256° |
| 2026-05-08 20:59 | 51.54532 | 0.88160 | 30973 ft | 441 kts | 255° |
| 2026-05-08 20:59 | 51.53700 | 0.83402 | 30219 ft | 442 kts | 255° |
| 2026-05-08 20:59 | 51.52870 | 0.78667 | 29615 ft | 437 kts | 255° |
| 2026-05-08 21:00 | 51.52049 | 0.73993 | 29013 ft | 432 kts | 255° |
| 2026-05-08 21:00 | 51.51233 | 0.69362 | 28367 ft | 429 kts | 255° |
| 2026-05-08 21:00 | 51.50433 | 0.64823 | 27735 ft | 426 kts | 255° |
| 2026-05-08 21:00 | 51.49617 | 0.60203 | 27114 ft | 423 kts | 255° |
| 2026-05-08 21:01 | 51.48816 | 0.55677 | 26519 ft | 420 kts | 254° |
| 2026-05-08 21:01 | 51.48016 | 0.51169 | 25905 ft | 417 kts | 254° |
| 2026-05-08 21:01 | 51.47221 | 0.46697 | 25317 ft | 415 kts | 254° |
| 2026-05-08 21:01 | 51.46432 | 0.42256 | 24777 ft | 411 kts | 253° |
| 2026-05-08 21:02 | 51.45647 | 0.37865 | 24241 ft | 408 kts | 253° |
| 2026-05-08 21:02 | 51.44874 | 0.33555 | 23688 ft | 406 kts | 253° |
| 2026-05-08 21:02 | 51.44084 | 0.29161 | 23046 ft | 403 kts | 253° |
| 2026-05-08 21:02 | 51.43314 | 0.24882 | 22448 ft | 400 kts | 253° |
| 2026-05-08 21:03 | 51.42544 | 0.20619 | 21864 ft | 396 kts | 253° |
| 2026-05-08 21:03 | 51.41778 | 0.16379 | 21329 ft | 392 kts | 252° |
| 2026-05-08 21:03 | 51.41018 | 0.12191 | 21118 ft | 392 kts | 252° |
| 2026-05-08 21:03 | 51.40251 | 0.07979 | 21128 ft | 393 kts | 252° |
| 2026-05-08 21:04 | 51.39484 | 0.03776 | 21127 ft | 393 kts | 252° |
| 2026-05-08 21:04 | 51.38715 | -0.00432 | 21115 ft | 393 kts | 252° |
| 2026-05-08 21:04 | 51.37948 | -0.04632 | 21104 ft | 392 kts | 252° |
| 2026-05-08 21:04 | 51.37174 | -0.08855 | 21107 ft | 392 kts | 252° |
| 2026-05-08 21:05 | 51.36297 | -0.12976 | 21096 ft | 389 kts | 245° |
| 2026-05-08 21:05 | 51.35095 | -0.16806 | 20832 ft | 381 kts | 240° |
| 2026-05-08 21:05 | 51.33820 | -0.20522 | 20127 ft | 382 kts | 240° |
| 2026-05-08 21:05 | 51.32534 | -0.24254 | 19531 ft | 381 kts | 240° |
| 2026-05-08 21:06 | 51.31273 | -0.27964 | 18984 ft | 379 kts | 240° |
| 2026-05-08 21:06 | 51.30027 | -0.31674 | 18457 ft | 376 kts | 240° |
| 2026-05-08 21:06 | 51.28801 | -0.35351 | 17867 ft | 373 kts | 240° |
| 2026-05-08 21:06 | 51.27579 | -0.39029 | 17271 ft | 370 kts | 241° |
| 2026-05-08 21:07 | 51.26378 | -0.42652 | 16713 ft | 367 kts | 241° |
| 2026-05-08 21:07 | 51.25187 | -0.46248 | 16196 ft | 364 kts | 241° |
| 2026-05-08 21:07 | 51.24007 | -0.49814 | 15653 ft | 362 kts | 241° |
| 2026-05-08 21:07 | 51.22833 | -0.53357 | 15108 ft | 359 kts | 241° |
| 2026-05-08 21:08 | 51.21659 | -0.56895 | 14596 ft | 357 kts | 241° |
| 2026-05-08 21:08 | 51.20501 | -0.60385 | 14083 ft | 354 kts | 241° |
| 2026-05-08 21:08 | 51.19351 | -0.63845 | 13537 ft | 352 kts | 242° |
| 2026-05-08 21:08 | 51.18209 | -0.67281 | 12969 ft | 349 kts | 241° |
| 2026-05-08 21:09 | 51.17075 | -0.70687 | 12437 ft | 346 kts | 241° |
| 2026-05-08 21:09 | 51.15950 | -0.74061 | 11887 ft | 343 kts | 241° |
| 2026-05-08 21:09 | 51.14830 | -0.77414 | 11366 ft | 340 kts | 241° |
| 2026-05-08 21:09 | 51.13722 | -0.80726 | 10835 ft | 338 kts | 241° |
| 2026-05-08 21:10 | 51.12615 | -0.84032 | 10330 ft | 335 kts | 241° |
| 2026-05-08 21:10 | 51.11518 | -0.87302 | 9793 ft | 333 kts | 241° |
| 2026-05-08 21:10 | 51.10436 | -0.90523 | 9409 ft | 326 kts | 241° |
| 2026-05-08 21:10 | 51.09384 | -0.93651 | 9181 ft | 315 kts | 241° |
| 2026-05-08 21:11 | 51.08363 | -0.96690 | 8948 ft | 304 kts | 240° |
| 2026-05-08 21:11 | 51.07380 | -0.99607 | 8753 ft | 294 kts | 240° |
| 2026-05-08 21:11 | 51.06749 | -1.01481 | 8628 ft | 288 kts | 240° |
| 2026-05-08 21:11 | 51.05817 | -1.04239 | 8433 ft | 278 kts | 240° |
| 2026-05-08 21:12 | 51.04618 | -1.07786 | 8038 ft | 273 kts | 240° |
| 2026-05-08 21:12 | 51.04009 | -1.09585 | 7776 ft | 272 kts | 240° |
| 2026-05-08 21:12 | 51.03111 | -1.12233 | 7422 ft | 271 kts | 240° |
| 2026-05-08 21:12 | 51.02219 | -1.14862 | 7133 ft | 269 kts | 240° |
| 2026-05-08 21:13 | 51.01038 | -1.18340 | 7097 ft | 271 kts | 240° |
| 2026-05-08 21:13 | 51.00431 | -1.20124 | 7096 ft | 271 kts | 240° |
| 2026-05-08 21:13 | 50.99536 | -1.22755 | 7095 ft | 271 kts | 240° |
| 2026-05-08 21:13 | 50.98641 | -1.25382 | 7091 ft | 267 kts | 240° |
| 2026-05-08 21:14 | 50.97781 | -1.27907 | 7083 ft | 252 kts | 240° |
| 2026-05-08 21:14 | 50.96970 | -1.30285 | 7082 ft | 237 kts | 240° |
| 2026-05-08 21:14 | 50.96205 | -1.32528 | 7089 ft | 227 kts | 240° |
| 2026-05-08 21:14 | 50.95449 | -1.34723 | 6831 ft | 227 kts | 239° |
| 2026-05-08 21:15 | 50.94662 | -1.36992 | 6245 ft | 241 kts | 239° |
| 2026-05-08 21:15 | 50.93827 | -1.39387 | 5597 ft | 255 kts | 239° |
| 2026-05-08 21:15 | 50.92948 | -1.41907 | 5008 ft | 265 kts | 239° |
| 2026-05-08 21:15 | 50.92057 | -1.44484 | 4612 ft | 266 kts | 239° |
| 2026-05-08 21:16 | 50.91170 | -1.47055 | 4262 ft | 266 kts | 239° |
| 2026-05-08 21:16 | 50.90278 | -1.49647 | 3902 ft | 265 kts | 239° |
| 2026-05-08 21:16 | 50.89412 | -1.52162 | 3578 ft | 265 kts | 239° |
| 2026-05-08 21:16 | 50.88534 | -1.54775 | 3226 ft | 265 kts | 244° |
| 2026-05-08 21:17 | 50.87961 | -1.57551 | 2983 ft | 265 kts | 253° |
| 2026-05-08 21:17 | 50.87527 | -1.60362 | 2991 ft | 267 kts | 255° |
| 2026-05-08 21:17 | 50.87105 | -1.63239 | 2989 ft | 267 kts | 256° |
| 2026-05-08 21:17 | 50.86689 | -1.66109 | 2991 ft | 268 kts | 256° |
| 2026-05-08 21:18 | 50.86272 | -1.68985 | 2988 ft | 268 kts | 255° |
| 2026-05-08 21:18 | 50.85852 | -1.71899 | 2990 ft | 268 kts | 256° |
| 2026-05-08 21:18 | 50.85442 | -1.74732 | 2989 ft | 266 kts | 256° |
| 2026-05-08 21:18 | 50.85037 | -1.77514 | 2980 ft | 250 kts | 256° |
| 2026-05-08 21:19 | 50.84669 | -1.80067 | 2974 ft | 226 kts | 256° |
| 2026-05-08 21:19 | 50.84343 | -1.82356 | 2996 ft | 200 kts | 255° |
| 2026-05-08 21:19 | 50.84062 | -1.84372 | 2966 ft | 175 kts | 256° |
| 2026-05-08 21:19 | 50.83823 | -1.86132 | 2933 ft | 154 kts | 256° |
| 2026-05-08 21:20 | 50.83604 | -1.87769 | 2952 ft | 151 kts | 255° |
| 2026-05-08 21:20 | 50.83390 | -1.89390 | 2968 ft | 151 kts | 255° |
| 2026-05-08 21:20 | 50.83177 | -1.91015 | 2976 ft | 150 kts | 255° |
| 2026-05-08 21:20 | 50.82964 | -1.92635 | 2976 ft | 150 kts | 256° |
| 2026-05-08 21:21 | 50.82752 | -1.94254 | 2979 ft | 150 kts | 255° |
| 2026-05-08 21:21 | 50.82541 | -1.95876 | 2978 ft | 150 kts | 255° |
| 2026-05-08 21:21 | 50.82330 | -1.97496 | 2975 ft | 150 kts | 256° |
| 2026-05-08 21:21 | 50.82120 | -1.99116 | 2978 ft | 150 kts | 255° |
| 2026-05-08 21:22 | 50.81912 | -2.00730 | 2978 ft | 150 kts | 256° |
| 2026-05-08 21:22 | 50.81700 | -2.02351 | 2980 ft | 150 kts | 255° |
| 2026-05-08 21:22 | 50.81488 | -2.03969 | 2980 ft | 150 kts | 255° |
| 2026-05-08 21:22 | 50.81061 | -2.05425 | 2969 ft | 143 kts | 213° |
| 2026-05-08 21:23 | 50.80167 | -2.06032 | 2993 ft | 139 kts | 190° |
| 2026-05-08 21:23 | 50.79219 | -2.06337 | 2986 ft | 139 kts | 186° |
| 2026-05-08 21:23 | 50.78265 | -2.06594 | 2982 ft | 139 kts | 186° |
| 2026-05-08 21:23 | 50.77309 | -2.06735 | 2976 ft | 136 kts | 161° |
| 2026-05-08 21:24 | 50.76571 | -2.05848 | 2998 ft | 138 kts | 124° |
| 2026-05-08 21:24 | 50.76110 | -2.04552 | 2834 ft | 133 kts | 117° |
| 2026-05-08 21:24 | 50.75700 | -2.03208 | 2415 ft | 138 kts | 116° |
| 2026-05-08 21:24 | 50.75337 | -2.01806 | 2042 ft | 137 kts | 96° |
| 2026-05-08 21:25 | 50.75385 | -2.00301 | 1977 ft | 138 kts | 84° |
| 2026-05-08 21:25 | 50.75585 | -1.98816 | 1822 ft | 138 kts | 79° |
| 2026-05-08 21:25 | 50.75829 | -1.97359 | 1638 ft | 137 kts | 78° |
| 2026-05-08 21:25 | 50.76077 | -1.95907 | 1446 ft | 136 kts | 78° |
| 2026-05-08 21:26 | 50.76320 | -1.94456 | 1260 ft | 136 kts | 77° |
| 2026-05-08 21:26 | 50.76559 | -1.93010 | 1084 ft | 136 kts | 77° |
| 2026-05-08 21:26 | 50.76797 | -1.91569 | 889 ft | 135 kts | 77° |
| 2026-05-08 21:26 | 50.77033 | -1.90134 | 716 ft | 135 kts | 76° |
| 2026-05-08 21:27 | 50.77272 | -1.88702 | 513 ft | 134 kts | 76° |
| 2026-05-08 21:27 | 50.77510 | -1.87275 | 324 ft | 134 kts | 76° |
| 2026-05-08 21:27 | 50.77734 | -1.85850 | 170 ft | 133 kts | 76° |
| 2026-05-08 21:27 | 50.77965 | -1.84472 | 52 ft | 115 kts | 75° |
| 2026-05-08 21:28 | 50.78084 | -1.83767 | 52 ft | 37 kts | 75° |
| 2026-05-08 21:28 | 50.78152 | -1.83379 | 54 ft | 37 kts | 75° |
| 2026-05-08 21:28 | 50.78216 | -1.82988 | 49 ft | 35 kts | 75° |
| 2026-05-08 21:28 | 50.78218 | -1.82776 | 52 ft | 4 kts | 95° |
| 2026-05-08 21:30 | 50.78232 | -1.82731 | 52 ft | 15 kts | 39° |
| 2026-05-08 21:30 | 50.78275 | -1.82783 | 52 ft | 3 kts | 236° |
| 2026-05-08 21:30 | 50.78229 | -1.82923 | 47 ft | 32 kts | 252° |
| 2026-05-08 21:30 | 50.78167 | -1.83275 | 53 ft | 34 kts | 255° |
| 2026-05-08 21:31 | 50.78106 | -1.83647 | 50 ft | 36 kts | 255° |
| 2026-05-08 21:31 | 50.78083 | -1.83895 | 47 ft | 11 kts | 307° |
| 2026-05-08 21:31 | 50.78173 | -1.83946 | 54 ft | 16 kts | 346° |
| 2026-05-08 21:31 | 50.78239 | -1.83973 | 53 ft | 0 kts | 345° |
| 2026-05-08 21:32 | 50.78242 | -1.83974 | 53 ft | 2 kts | 345° |
| 2026-05-08 21:32 | 50.78268 | -1.83984 | 54 ft | 6 kts | 345° |